Blomskog, Sweden

3:10 PM CEST on August 05, 2015 (GMT +0200)
Torp Nordtorp | | Change Station
CLOSE
Current Station
Personal Weather Station
Location: Varmland County, VARMLAND COUNTY
Elevation: 276 ft
Nearby Weather Stations

Elev 276 ft 59.28 °N, 12.75 °E | Updated 24 seconds ago

Mostly Cloudy
Mostly Cloudy
70.9 °F
Feels Like 73 °F
N
3.8
Wind Variable Wind from SE
Gusts 6.0 mph

Today
High -- | Low -- °F
--% Chance of Precip.
Yesterday
High -- | Low -- °F
Precip. -- in
5:05 AM 9:28 PM
Waning Gibbous, 67% visible
Pressure 29.95 in
Visibility 6.2 miles
Clouds Few 1200 ft
Mostly Cloudy 19000 ft
Heat Index 73 °F
Dew Point 62 °F
Humidity 73%
Rainfall 0.20 in
Snow Depth Not available.
UV 3 out of 12
Pollen Not available.
Air Quality Not available.
Flu Activity Not available.
METAR ENRY 051250Z 19014KT 9999 FEW012 BKN190 18/15 Q1014 NOSIG

More Conditions Fewer Conditions

Pressure 29.95 in
Visibility 6.2 miles
Clouds Few 1200 ft
Mostly Cloudy 19000 ft
Heat Index 73 °F
Dew Point 62 °F
Humidity 73%
Rainfall 0.20 in
Snow Depth Not available.
UV 3 out of 12
Pollen Not available.
Air Quality Not available.
Flu Activity Not available.
METAR ENRY 051250Z 19014KT 9999 FEW012 BKN190 18/15 Q1014 NOSIG

More Conditions Fewer Conditions

10-Day Weather Forecast

×

Almanac

Astronomy

Aug. 05, 2015 Rise Set
Actual Time
Civil Twilight
Nautical Twilight
Astronomical Twilight
Moon
Length of Visible Light
Length of Day
Tomorrow will be .
, % of the Moon is Illuminated

Today's Extremes

Country Highs Country Lows

Community

WunderPhotos

Upload Photos

1,844,180 photos uploaded!

WunderBlogs® & News

Nearby

Air Quality

  Air Quality AQ Index Pollutant
Not available.

Snow Depth

Station Depth Elevation

Earthquake Activity

City Distance Mag. Time & Date
Minimum magnitude displayed is 2.5.

Coastal Water Temperatures

Place Temperature

Stations

Nearby Weather Stations

Station Location Temp. Windchill Dew Point Humidity Wind Precip. Elev Updated Type